Weather at Kasos Airport

Public forecast

Using degrees Celsius for public forecast. Weather courtesy of forecast.io.

Closest aviation weather report (METAR) to Kasos Airport

Closest report is Karpathos Airport, 11.5 nm (21.4 km) E. Retrieved 2021/01/28 01:30 UTC (2 minutes ago):

LGKP 280130Z AUTO 30016KT //// -RA ////// 10/02 Q1012 RE//

Closest aviation forecast (TAF) to Kasos Airport

Forecast is more than 12 hours old.

Closest forecast is Karpathos Airport, 11.5 nm (21.4 km) E. Retrieved 2020/03/18 09:39 UTC (11 months ago):

TAF TAF LGKP 180800Z 1809/1821 33025G35KT 9999 FEW020